Latest Weather Observations for Toowoomba

IDQ60901

Issued at 11:31 pm EST Saturday 15 December 2018 (issued every 10 minutes, with the page automatically refreshed every 10 minutes)

About weather observations | Map of Brisbane area stations | Latest observations for Brisbane area | Other Formats
Station Details ID: 041529 Name: TOOWOOMBA AIRPORT Lat: -27.54 Lon: 151.91 Height: 640.9 m
Data from the previous 72 hours. | See also: Recent months at Toowoomba
Date/Time
EST
Temp
°C
App
Temp
°C
Dew
Point
°C
Rel
Hum
%
Delta-T
°C
Wind Press
QNH
hPa
Press
MSL
hPa
Rain since
9am
mm
Dir  Spd
km/h
Gust
km/h
Spd
kts
Gust
kts
15/11:30pm 20.6 19.2 20.4 99 0.1 E 28 35 15 19 1012.8 1009.3 1.0
15/11:00pm 20.6 20.0 20.4 99 0.1 E 24 32 13 17 1013.3 1009.8 1.0
15/10:30pm 20.8 19.9 20.6 99 0.1 E 26 32 14 17 1013.3 1009.8 1.0
15/10:00pm 21.0 21.3 20.8 99 0.1 E 20 28 11 15 1013.6 1010.1 1.0
15/09:50pm 21.0 21.5 20.8 99 0.1 ESE 19 24 10 13 1013.6 1010.1 1.0
15/09:30pm 21.1 20.9 20.6 97 0.3 E 22 28 12 15 1013.3 1009.8 0.8
15/09:00pm 21.7 22.4 20.5 93 0.8 ENE 17 22 9 12 1013.3 1009.8 0.8
15/08:30pm 22.5 22.3 19.7 84 1.8 ENE 20 28 11 15 1012.9 1009.4 0.0
15/08:00pm 23.4 22.6 18.5 74 3.2 E 20 28 11 15 1012.4 1008.9 0.0
15/07:30pm 23.8 21.5 18.4 72 3.5 NE 28 37 15 20 1011.5 1008.0 0.0
15/07:00pm 24.3 23.9 19.4 74 3.2 ENE 20 32 11 17 1011.4 1007.9 0.0
15/06:30pm 24.7 22.8 19.3 72 3.5 ENE 28 35 15 19 1010.6 1007.0 0.0
15/06:00pm 25.3 24.2 19.4 70 3.9 ENE 24 32 13 17 1010.3 1006.7 0.0
15/05:30pm 25.7 24.9 19.3 67 4.2 ENE 22 30 12 16 1009.9 1006.4 0.0
15/05:00pm 26.8 25.8 19.7 65 4.7 ENE 24 33 13 18 1009.2 1005.6 0.0
15/04:30pm 28.4 27.4 18.8 56 6.3 ENE 22 32 12 17 1008.9 1005.3 0.0
15/04:00pm 28.7 27.7 18.8 55 6.5 ENE 22 30 12 16 1008.9 1005.3 0.0
15/03:30pm 29.1 28.3 20.0 58 6.1 ENE 24 33 13 18 1009.3 1005.7 0.0
15/03:00pm 28.4 27.2 18.5 55 6.5 ENE 22 30 12 16 1009.4 1005.9 0.0
15/02:30pm 27.9 26.5 18.9 58 5.9 E 24 32 13 17 1009.6 1006.1 0.0
15/02:00pm 28.8 28.3 20.0 59 5.9 E 22 32 12 17 1010.0 1006.5 0.0
15/01:30pm 29.0 27.3 18.1 51 7.1 NE 24 37 13 20 1010.3 1006.7 0.0
15/01:00pm 28.1 26.3 18.8 57 6.1 ENE 26 35 14 19 1010.6 1007.0 0.0
15/12:30pm 28.0 26.8 19.2 58 5.8 NE 24 32 13 17 1011.0 1007.5 0.0
15/12:00pm 27.1 26.5 18.9 61 5.4 NE 20 30 11 16 1011.5 1008.0 0.0
15/11:30am 26.8 25.7 18.6 60 5.4 NE 22 32 12 17 1012.1 1008.5 0.0
15/11:00am 25.9 25.4 19.1 66 4.5 ENE 20 32 11 17 1012.5 1009.0 0.0
15/10:30am 25.2 24.9 19.6 71 3.7 ENE 20 30 11 16 1012.5 1009.0 0.0
15/10:00am 25.0 24.3 19.4 71 3.7 ENE 22 33 12 18 1012.6 1009.1 0.0
15/09:30am 23.6 22.4 19.3 77 2.8 ENE 24 33 13 18 1012.6 1009.1 0.0
15/09:16am 23.6 23.3 20.3 82 2.2 ENE 22 33 12 18 1012.6 1009.1 0.0
15/09:00am 22.8 22.0 20.0 84 1.8 ENE 24 32 13 17 1012.5 1009.0 15.6
15/08:30am 21.7 21.0 19.6 88 1.4 ENE 22 30 12 16 1012.6 1009.1 15.6
15/08:00am 21.1 20.3 20.1 94 0.7 ENE 24 30 13 16 1012.5 1009.0 15.6
15/07:30am 19.6 18.5 19.4 99 0.1 ENE 24 32 13 17 1012.5 1009.0 15.6
15/07:00am 19.3 17.7 19.1 99 0.1 ENE 26 37 14 20 1012.1 1008.5 15.6
15/06:30am 19.2 17.9 19.0 99 0.1 E 24 33 13 18 1011.6 1008.1 15.6
15/06:12am 18.8 17.3 18.6 99 0.1 E 24 35 13 19 1011.4 1007.9 15.6
15/06:00am 18.4 16.4 18.2 99 0.1 E 26 30 14 16 1011.2 1007.7 15.6
15/05:30am 18.1 15.9 17.9 99 0.1 E 26 30 14 16 1010.7 1007.1 15.6
15/05:00am 18.4 16.6 17.8 96 0.4 E 24 33 13 18 1009.9 1006.4 15.6
15/04:30am 18.5 16.0 18.0 97 0.3 E 28 35 15 19 1009.4 1005.9 15.6
15/04:00am 18.3 16.2 18.1 99 0.1 E 26 30 14 16 1008.9 1005.3 15.6
15/03:30am 18.3 16.6 18.1 99 0.1 E 24 28 13 15 1008.4 1004.9 15.6
15/03:00am 18.8 17.8 18.0 95 0.5 ENE 20 26 11 14 1008.4 1004.9 15.6
15/02:30am 18.9 18.4 18.7 99 0.1 E 19 22 10 12 1008.2 1004.7 15.6
15/02:00am 18.6 18.0 18.4 99 0.1 E 19 22 10 12 1008.6 1005.0 15.6
15/01:30am 18.6 17.8 18.4 99 0.1 E 20 24 11 13 1008.3 1004.8 15.6
15/01:00am 18.9 17.7 17.4 91 0.9 ENE 20 28 11 15 1009.3 1005.7 15.6
15/12:30am 18.9 18.0 18.2 96 0.4 E 20 26 11 14 1009.7 1006.2 15.4
15/12:00am 19.1 18.0 18.6 97 0.3 ENE 22 32 12 17 1011.0 1007.5 15.2
 
Date/Time
EST
Temp
°C
App
Temp
°C
Dew
Point
°C
Rel
Hum
%
Delta-T
°C
Wind Press
QNH
hPa
Press
MSL
hPa
Rain since
9am
mm
Dir  Spd
km/h
Gust
km/h
Spd
kts
Gust
kts
14/11:34pm 19.5 17.9 19.3 99 0.1 NE 26 35 14 19 1011.2 1007.7 14.0
14/11:30pm 19.6 18.2 19.6 100 0.0 NE 26 33 14 18 1011.1 1007.6 13.6
14/11:28pm 19.7 18.7 19.7 100 0.0 ENE 24 30 13 16 1011.1 1007.6 13.6
14/11:00pm 19.6 18.1 19.4 99 0.1 E 26 33 14 18 1010.9 1007.4 12.4
14/10:49pm 19.6 18.1 19.4 99 0.1 E 26 32 14 17 1010.9 1007.4 12.2
14/10:30pm 19.6 19.2 19.4 99 0.1 E 20 26 11 14 1011.2 1007.7 11.8
14/10:07pm 19.5 18.3 19.3 99 0.1 E 24 32 13 17 1011.0 1007.5 11.2
14/10:00pm 19.6 18.5 19.4 99 0.1 E 24 32 13 17 1010.8 1007.3 10.8
14/09:58pm 19.6 18.9 19.4 99 0.1 E 22 32 12 17 1010.9 1007.4 10.6
14/09:33pm 19.5 19.1 19.3 99 0.1 E 20 28 11 15 1011.3 1007.8 9.2
14/09:30pm 19.5 19.1 19.3 99 0.1 E 20 28 11 15 1011.4 1007.9 9.0
14/09:00pm 19.6 17.7 19.4 99 0.1 E 28 35 15 19 1009.9 1006.4 8.0
14/08:30pm 19.9 18.5 19.6 98 0.2 ESE 26 35 14 19 1010.1 1006.6 6.8
14/08:00pm 20.8 19.3 20.3 97 0.3 ESE 28 35 15 19 1008.6 1005.0 6.4
14/07:30pm 20.6 19.6 20.4 99 0.1 E 26 32 14 17 1008.3 1004.8 6.2
14/07:00pm 20.3 19.9 20.1 99 0.1 E 22 30 12 16 1008.7 1005.1 6.0
14/06:30pm 20.3 19.2 19.5 95 0.5 E 24 30 13 16 1008.3 1004.8 6.0
14/06:19pm 20.4 21.5 19.6 95 0.5 E 13 22 7 12 1008.9 1005.3 6.0
14/06:00pm 20.5 20.2 19.2 92 0.8 ENE 19 32 10 17 1008.7 1005.1 5.6
14/05:49pm 20.7 21.3 18.5 87 1.4 SSE 13 19 7 10 1008.1 1004.6 2.6
14/05:30pm 21.7 20.5 18.3 81 2.2 ESE 22 32 12 17 1007.7 1004.1 0.6
14/05:00pm 23.4 21.4 18.3 73 3.3 E 26 35 14 19 1006.8 1003.3 0.6
14/04:30pm 25.6 25.1 19.0 67 4.3 E 20 24 11 13 1005.6 1002.0 0.6
14/04:00pm 27.0 26.7 18.3 59 5.7 ENE 17 20 9 11 1005.5 1001.9 0.6
14/03:30pm 28.6 28.1 16.8 48 7.6 NNE 15 20 8 11 1005.1 1001.6 0.6
14/03:00pm 28.9 28.1 16.1 46 8.2 N 15 24 8 13 1005.1 1001.6 0.6
14/02:30pm 29.0 28.8 17.5 49 7.5 N 15 22 8 12 1005.7 1002.1 0.6
14/02:00pm 28.6 27.7 16.8 48 7.6 NNE 17 24 9 13 1006.4 1002.8 0.6
14/01:30pm 28.3 27.3 17.5 52 7.0 N 19 26 10 14 1006.6 1003.1 0.6
14/01:00pm 28.9 27.8 17.7 50 7.3 N 20 30 11 16 1006.8 1003.3 0.6
14/12:30pm 28.9 27.8 17.7 50 7.3 N 20 32 11 17 1007.2 1003.6 0.6
14/12:00pm 28.3 27.8 19.0 57 6.2 NNE 20 28 11 15 1007.5 1003.9 0.4
14/11:30am 27.0 26.5 18.6 60 5.5 N 19 30 10 16 1007.8 1004.2 0.4
14/11:00am 25.8 24.4 18.0 62 5.1 NNW 22 32 12 17 1008.1 1004.6 0.4
14/10:30am 24.9 23.7 17.4 63 4.8 N 20 30 11 16 1008.3 1004.8 0.4
14/10:00am 23.0 22.2 17.9 73 3.3 N 19 28 10 15 1008.4 1004.9 0.4
14/09:30am 20.8 21.6 17.4 81 2.1 NNW 9 17 5 9 1008.9 1005.3 0.4
14/09:00am 19.5 18.1 17.1 86 1.5 NE 20 30 11 16 1007.8 1004.2 1.8
14/08:30am 19.9 20.0 17.5 86 1.5 N 13 20 7 11 1008.6 1005.0 1.4
14/08:00am 19.5 19.7 18.5 94 0.6 N 15 19 8 10 1008.6 1005.0 1.4
14/07:30am 19.4 18.7 18.6 95 0.5 N 20 26 11 14 1008.9 1005.3 1.4
14/07:00am 19.0 19.4 18.2 95 0.5 NNW 13 17 7 9 1008.8 1005.2 1.4
14/06:30am 18.8 18.2 17.6 93 0.8 NW 17 24 9 13 1009.1 1005.5 1.4
14/06:00am 19.0 18.5 17.7 92 0.8 NNW 17 22 9 12 1008.7 1005.1 1.0
14/05:30am 19.4 18.6 19.2 99 0.1 NNW 22 28 12 15 1008.6 1005.0 0.6
14/05:00am 19.4 18.9 19.1 98 0.2 NNW 20 26 11 14 1008.3 1004.8 0.2
14/04:44am 19.5 18.5 18.8 96 0.4 NNW 22 32 12 17 1008.2 1004.7 0.2
14/04:30am 19.4 19.3 18.7 96 0.4 NNW 17 22 9 12 1008.2 1004.7 0.0
14/04:00am 19.5 20.1 18.5 94 0.6 N 13 19 7 10 1008.2 1004.7 0.0
14/03:55am 19.6 20.1 18.4 93 0.8 N 13 19 7 10 1008.2 1004.7 0.0
14/03:30am 19.8 20.1 17.9 89 1.2 N 13 19 7 10 1007.9 1004.4 0.0
14/03:00am 19.9 20.2 17.9 88 1.3 N 13 17 7 9 1007.8 1004.2 0.0
14/02:30am 20.1 20.8 17.9 87 1.4 N 11 15 6 8 1007.9 1004.4 0.0
14/02:00am 20.2 20.1 17.8 86 1.5 NNW 15 19 8 10 1007.6 1004.0 0.0
14/01:30am 20.2 20.6 18.1 88 1.3 NE 13 19 7 10 1007.5 1003.9 0.0
14/01:00am 20.2 17.3 18.0 87 1.4 ENE 30 44 16 24 1006.4 1002.8 0.0
14/12:55am 20.4 18.6 17.8 85 1.6 ENE 24 37 13 20 1006.4 1002.8 0.0
14/12:30am 21.0 21.3 17.8 82 2.0 NNE 13 20 7 11 1008.4 1004.9 0.0
14/12:00am 20.8 21.9 18.0 84 1.8 ENE 9 13 5 7 1008.7 1005.1 0.0
 
Date/Time
EST
Temp
°C
App
Temp
°C
Dew
Point
°C
Rel
Hum
%
Delta-T
°C
Wind Press
QNH
hPa
Press
MSL
hPa
Rain since
9am
mm
Dir  Spd
km/h
Gust
km/h
Spd
kts
Gust
kts
13/11:30pm 21.0 21.2 17.6 81 2.2 NE 13 17 7 9 1008.8 1005.2 0.0
13/11:00pm 21.1 21.8 17.9 82 2.0 ENE 11 15 6 8 1009.2 1005.6 0.0
13/10:30pm 21.3 20.2 17.3 78 2.5 ENE 19 24 10 13 1008.7 1005.1 0.0
13/10:00pm 21.6 19.5 17.2 76 2.8 ENE 24 30 13 16 1008.0 1004.5 0.0
13/09:30pm 20.7 20.0 18.6 88 1.3 E 20 24 11 13 1008.6 1005.0 0.0
13/09:00pm 20.6 21.0 18.2 86 1.5 SSW 13 19 7 10 1009.9 1006.4 0.0
13/08:30pm 22.0 20.0 16.5 71 3.4 WSW 22 35 12 19 1010.1 1006.6 0.0
13/08:00pm 24.9 23.8 14.4 52 6.4 N 13 22 7 12 1009.4 1005.9 0.0
13/07:30pm 25.0 23.2 14.5 52 6.4 N 17 22 9 12 1009.2 1005.6 0.0
13/07:00pm 25.2 23.2 14.0 49 6.8 N 17 24 9 13 1009.0 1005.4 0.0
13/06:30pm 25.7 23.1 13.2 46 7.5 N 19 26 10 14 1008.9 1005.3 0.0
13/06:00pm 26.1 22.7 12.5 42 8.1 N 22 32 12 17 1008.1 1004.6 0.0
13/05:30pm 26.6 23.4 11.9 40 8.7 N 20 30 11 16 1007.5 1003.9 0.0
13/05:00pm 27.3 24.0 11.7 37 9.2 N 20 32 11 17 1006.8 1003.3 0.0
13/04:30pm 28.4 23.9 10.1 32 10.6 N 24 35 13 19 1006.2 1002.6 0.0
13/04:00pm 28.9 26.0 11.0 33 10.6 NNE 17 28 9 15 1006.3 1002.7 0.0
13/03:30pm 29.6 26.2 10.7 31 11.1 N 19 35 10 19 1006.4 1002.8 0.0
13/03:00pm 29.9 25.6 10.9 31 11.2 N 24 35 13 19 1006.6 1003.1 0.0
13/02:30pm 30.0 26.4 10.5 30 11.4 NNE 20 30 11 16 1007.6 1004.0 0.0
13/02:00pm 30.4 27.6 11.4 31 11.3 N 17 35 9 19 1008.2 1004.7 0.0
13/01:30pm 30.2 27.3 13.0 34 10.5 N 20 32 11 17 1008.8 1005.2 0.0
13/01:00pm 27.8 24.6 11.8 37 9.5 NNE 20 32 11 17 1009.5 1006.0 0.0
13/12:30pm 28.1 24.7 12.5 38 9.4 NNE 22 33 12 18 1009.7 1006.2 0.0
13/12:00pm 28.1 26.2 14.3 42 8.5 N 17 28 9 15 1010.4 1006.8 0.0
13/11:30am 27.1 25.2 14.1 44 8.0 N 17 26 9 14 1011.1 1007.6 0.0
13/11:00am 26.4 23.8 13.2 44 8.0 N 19 30 10 16 1011.7 1008.2 0.0
13/10:30am 24.7 22.4 14.2 52 6.4 N 19 28 10 15 1012.0 1008.4 0.0
13/10:00am 24.1 21.7 14.5 55 5.9 NNE 20 30 11 16 1012.2 1008.7 0.0
13/09:30am 22.2 19.8 13.8 59 5.0 N 19 24 10 13 1012.6 1009.1 0.0
13/09:00am 22.7 21.0 14.8 61 4.8 N 17 24 9 13 1013.0 1009.5 0.0
13/08:30am 20.9 19.0 14.1 65 4.1 NNE 17 24 9 13 1013.1 1009.6 0.0
13/08:00am 20.9 19.2 14.8 68 3.7 NNE 17 24 9 13 1013.1 1009.6 0.0
13/07:30am 19.9 19.0 14.9 73 3.0 N 13 19 7 10 1013.2 1009.7 0.0
13/07:00am 19.5 18.3 15.0 75 2.7 N 15 19 8 10 1013.2 1009.7 0.0
13/06:30am 18.3 17.7 15.6 84 1.6 NNE 13 17 7 9 1013.2 1009.7 0.0
13/06:00am 18.1 18.6 16.6 91 0.9 E 9 11 5 6 1013.0 1009.5 0.0
13/05:30am 17.4 17.5 16.6 95 0.5 E 11 17 6 9 1012.7 1009.2 0.0
13/05:00am 17.2 16.1 16.4 95 0.5 E 17 20 9 11 1012.2 1008.7 0.0
13/04:30am 17.5 15.0 16.2 92 0.8 ENE 24 32 13 17 1011.4 1007.9 0.0
13/04:00am 17.4 13.8 16.3 93 0.7 ENE 30 37 16 20 1011.3 1007.8 0.0
13/03:30am 17.5 15.4 16.2 92 0.8 ENE 22 30 12 16 1011.8 1008.3 0.0
13/03:00am 17.7 16.0 16.2 91 0.9 ENE 20 24 11 13 1011.8 1008.3 0.0
13/02:53am 17.8 16.0 16.0 89 1.1 ENE 20 24 11 13 1012.0 1008.4 0.0
13/02:30am 18.2 17.8 16.2 88 1.2 NNE 13 19 7 10 1012.5 1009.0 0.0
13/02:00am 18.3 17.9 16.3 88 1.2 NE 13 19 7 10 1012.8 1009.3 0.0
13/01:30am 18.2 17.9 16.4 89 1.1 NE 13 19 7 10 1013.0 1009.5 0.0
13/01:00am 18.0 17.6 16.3 90 1.0 NNE 13 17 7 9 1013.6 1010.1 0.0
13/12:57am 17.9 17.1 16.2 90 1.0 NE 15 20 8 11 1013.6 1010.1 0.0
13/12:30am 17.9 16.3 16.1 89 1.1 ENE 19 24 10 13 1013.3 1009.8 0.0
13/12:00am 18.1 16.0 16.1 88 1.2 ENE 22 30 12 16 1013.8 1010.3 0.0

Latest Capital City Observations: Canberra | Sydney | Melbourne | Brisbane | Adelaide | Perth | Hobart | Darwin

Other Formats:

Comma delimited format used in spreadsheet applications
http://www.bom.gov.au/fwo/IDQ60901/IDQ60901.95551.axf

JavaScript Object Notation format (JSON) in row-major order
http://www.bom.gov.au/fwo/IDQ60901/IDQ60901.95551.json